createdAt,value
2019-03-12T00:01:49.690Z,77.63
2019-03-12T00:04:18.073Z,78.71
2019-03-12T00:06:46.696Z,78.30
2019-03-12T00:09:15.338Z,78.73
2019-03-12T00:11:43.723Z,78.83
2019-03-12T00:14:12.139Z,78.89
2019-03-12T00:16:40.522Z,80.44
2019-03-12T00:19:09.160Z,80.27
2019-03-12T00:21:37.554Z,79.22
2019-03-12T00:24:06.011Z,79.26
2019-03-12T00:26:34.412Z,80.06
2019-03-12T00:29:22.208Z,79.68
2019-03-12T00:31:50.924Z,80.06
2019-03-12T00:34:19.311Z,80.35
2019-03-12T00:36:47.985Z,80.94
2019-03-12T00:39:16.637Z,79.94
2019-03-12T00:41:45.002Z,80.61
2019-03-12T00:44:13.404Z,81.00
2019-03-12T00:46:41.786Z,80.10
2019-03-12T00:49:10.498Z,79.43
2019-03-12T00:51:39.178Z,80.35
2019-03-12T00:54:07.865Z,80.17
2019-03-12T00:56:36.549Z,81.41
2019-03-12T00:59:05.012Z,79.99
2019-03-12T01:01:33.394Z,81.33
2019-03-12T01:04:02.032Z,82.21
2019-03-12T01:06:30.413Z,83.70
2019-03-12T01:08:58.810Z,82.63
2019-03-12T01:11:27.263Z,83.21
2019-03-12T01:13:55.918Z,82.20
2019-03-12T01:16:24.310Z,81.81
2019-03-12T01:18:52.695Z,82.08
2019-03-12T01:21:21.380Z,83.25
2019-03-12T01:23:49.761Z,82.97
2019-03-12T01:26:18.449Z,82.82
2019-03-12T01:28:46.904Z,84.56
2019-03-12T01:31:15.290Z,84.95
2019-03-12T01:33:43.686Z,86.60
2019-03-12T01:36:12.071Z,88.34
2019-03-12T01:38:40.457Z,89.24
2019-03-12T01:41:09.113Z,87.87
2019-03-12T01:43:37.799Z,89.71
2019-03-12T01:46:25.837Z,90.45
2019-03-12T01:48:54.523Z,91.01
2019-03-12T01:51:22.997Z,90.26
2019-03-12T01:53:51.383Z,85.54
2019-03-12T01:56:19.762Z,85.42
2019-03-12T01:58:48.166Z,83.74
2019-03-12T02:01:16.550Z,83.50
2019-03-12T02:06:20.538Z,82.62
2019-03-12T02:08:49.230Z,83.71
2019-03-12T02:11:17.866Z,82.16
2019-03-12T02:14:25.082Z,83.02
2019-03-12T02:16:53.487Z,84.98
2019-03-12T02:19:22.285Z,84.55
2019-03-12T02:21:50.816Z,85.04
2019-03-12T02:24:19.277Z,81.76
2019-03-12T02:26:47.661Z,82.76
2019-03-12T02:29:16.096Z,80.62
2019-03-12T02:31:44.491Z,80.54
2019-03-12T02:34:12.949Z,79.82
2019-03-12T02:36:41.653Z,81.70
2019-03-12T02:42:18.455Z,81.62
2019-03-12T02:44:47.064Z,80.83
2019-03-12T02:47:15.709Z,82.98
2019-03-12T02:49:44.104Z,83.26
2019-03-12T02:52:12.769Z,84.41
2019-03-12T02:54:41.170Z,85.70
2019-03-12T02:57:09.567Z,86.68
2019-03-12T02:59:37.945Z,86.51
2019-03-12T03:02:06.602Z,87.58
2019-03-12T03:04:35.259Z,88.11
2019-03-12T03:09:39.511Z,90.31
2019-03-12T03:12:07.893Z,92.00
2019-03-12T03:15:16.195Z,91.71
2019-03-12T03:17:44.891Z,91.55
2019-03-12T03:20:13.681Z,92.85
2019-03-12T03:22:42.082Z,92.91
2019-03-12T03:28:18.858Z,93.54
2019-03-12T03:30:47.574Z,94.48
2019-03-12T03:33:16.184Z,94.40
2019-03-12T03:35:44.568Z,93.71
2019-03-12T03:38:13.293Z,93.04
2019-03-12T03:40:41.684Z,93.50
2019-03-12T03:43:10.363Z,95.78
2019-03-12T03:45:39.065Z,95.01
2019-03-12T03:48:07.453Z,93.50
2019-03-12T03:50:36.119Z,92.92
2019-03-12T03:53:04.794Z,92.42
2019-03-12T03:55:33.499Z,91.87
2019-03-12T03:58:02.005Z,92.11
2019-03-12T04:00:30.591Z,92.24
2019-03-12T04:02:58.976Z,91.83
2019-03-12T04:05:27.449Z,91.97
2019-03-12T04:07:56.096Z,92.16
2019-03-12T04:10:24.501Z,92.23
2019-03-12T04:12:52.873Z,93.42
2019-03-12T04:15:21.253Z,95.40
2019-03-12T04:17:49.646Z,96.34
2019-03-12T04:20:57.984Z,96.77
2019-03-12T04:23:26.708Z,97.87
2019-03-12T04:25:55.395Z,99.38
2019-03-12T04:28:23.776Z,99.26
2019-03-12T04:30:52.471Z,97.57
2019-03-12T04:33:59.683Z,97.79
2019-03-12T04:36:28.162Z,97.73
2019-03-12T04:38:56.814Z,96.34
2019-03-12T04:41:25.218Z,96.37
2019-03-12T04:43:53.614Z,96.00
2019-03-12T04:46:21.994Z,96.47
2019-03-12T04:48:50.417Z,95.44
2019-03-12T04:51:18.789Z,95.77
2019-03-12T04:53:47.497Z,95.68
2019-03-12T04:56:15.889Z,95.99
2019-03-12T04:58:44.328Z,96.20
2019-03-12T05:01:13.047Z,96.05
2019-03-12T05:03:41.430Z,96.17
2019-03-12T05:06:10.108Z,96.95
2019-03-12T05:08:38.504Z,96.37
2019-03-12T05:11:07.125Z,96.61
2019-03-12T05:13:35.859Z,96.43
2019-03-12T05:16:04.238Z,96.90
2019-03-12T05:18:32.926Z,97.07
2019-03-12T05:21:01.607Z,97.83
2019-03-12T05:23:30.240Z,98.04
2019-03-12T05:25:58.631Z,98.65
2019-03-12T05:28:27.363Z,97.70
2019-03-12T05:30:56.045Z,98.36
2019-03-12T05:33:24.425Z,98.38
2019-03-12T05:35:53.106Z,98.64
2019-03-12T05:38:21.502Z,98.73
2019-03-12T05:40:50.125Z,99.16
2019-03-12T05:43:18.530Z,99.21
2019-03-12T05:45:47.145Z,100.00
2019-03-12T05:48:15.863Z,99.69
2019-03-12T05:50:44.235Z,100.00
2019-03-12T05:53:52.769Z,100.00
2019-03-12T05:56:21.240Z,100.00
2019-03-12T05:58:49.623Z,100.00
2019-03-12T06:01:18.008Z,100.00
2019-03-12T06:03:46.463Z,100.00
2019-03-12T06:06:15.143Z,100.00
2019-03-12T06:08:43.545Z,100.00
2019-03-12T06:11:12.207Z,100.00
2019-03-12T06:13:40.603Z,100.00
2019-03-12T06:16:09.391Z,100.00
2019-03-12T06:18:38.043Z,100.00
2019-03-12T06:21:06.496Z,100.00
2019-03-12T06:23:34.902Z,100.00
2019-03-12T06:26:03.591Z,100.00
2019-03-12T06:28:31.983Z,100.00
2019-03-12T06:31:19.500Z,100.00
2019-03-12T06:34:06.998Z,100.00
2019-03-12T06:36:54.755Z,100.00
2019-03-12T06:39:43.201Z,98.58
2019-03-12T06:42:31.728Z,98.52
2019-03-12T06:45:19.461Z,97.89
2019-03-12T06:48:07.216Z,96.57
2019-03-12T06:50:54.954Z,96.17
2019-03-12T06:53:42.476Z,96.93
2019-03-12T06:56:30.209Z,96.01
2019-03-12T06:59:17.961Z,97.13
2019-03-12T07:02:05.696Z,96.80
2019-03-12T07:07:32.611Z,93.61
2019-03-12T07:10:20.369Z,91.72
2019-03-12T07:15:57.215Z,89.16
2019-03-12T07:18:44.981Z,87.82
2019-03-12T07:21:32.494Z,87.91
2019-03-12T07:27:09.322Z,82.21
2019-03-12T07:32:45.913Z,81.66
2019-03-12T07:38:22.747Z,79.37
2019-03-12T07:41:22.872Z,79.08
2019-03-12T07:43:59.854Z,78.12
2019-03-12T07:52:35.283Z,76.24
2019-03-12T07:55:43.585Z,74.88
2019-03-12T08:01:39.171Z,73.05
2019-03-12T08:04:26.681Z,73.56
2019-03-12T08:07:14.445Z,72.03
2019-03-12T08:10:02.211Z,71.39
2019-03-12T08:15:44.465Z,69.93
2019-03-12T08:18:35.379Z,70.00
2019-03-12T08:24:13.585Z,67.06
2019-03-12T08:27:19.364Z,68.27
2019-03-12T08:33:01.571Z,68.87
2019-03-12T08:35:49.318Z,67.62
2019-03-12T08:38:37.075Z,63.99
2019-03-12T08:41:24.829Z,63.85
2019-03-12T08:44:12.563Z,63.49
2019-03-12T08:47:00.309Z,63.65
2019-03-12T08:52:37.154Z,62.21
2019-03-12T08:55:45.715Z,60.98
2019-03-12T09:03:48.063Z,60.34
2019-03-12T09:09:45.514Z,62.02
2019-03-12T09:12:45.665Z,60.46
2019-03-12T09:18:16.762Z,59.58
2019-03-12T09:21:04.507Z,58.88
2019-03-12T09:27:00.693Z,58.70
2019-03-12T09:29:48.420Z,59.32
2019-03-12T09:32:35.939Z,58.67
2019-03-12T09:41:07.310Z,57.33
2019-03-12T09:43:54.815Z,56.89
2019-03-12T09:49:31.412Z,53.31
2019-03-12T09:55:08.013Z,52.16
2019-03-12T09:58:14.823Z,50.86
2019-03-12T10:06:32.526Z,53.06
2019-03-12T10:12:09.169Z,51.30
2019-03-12T10:14:56.664Z,50.10
2019-03-12T10:17:44.406Z,50.00
2019-03-12T10:20:31.894Z,49.50
2019-03-12T10:28:34.379Z,48.86
2019-03-12T10:31:22.108Z,46.48
2019-03-12T10:40:03.495Z,48.08
2019-03-12T10:43:11.751Z,48.47
2019-03-12T10:45:59.259Z,45.48
2019-03-12T10:48:27.927Z,46.49
2019-03-12T10:50:56.598Z,45.93
2019-03-12T10:53:24.974Z,46.86
2019-03-12T10:55:53.405Z,44.51
2019-03-12T10:58:22.046Z,44.09
2019-03-12T11:00:50.731Z,46.82
2019-03-12T11:03:19.412Z,45.44
2019-03-12T11:05:48.116Z,45.33
2019-03-12T11:08:16.818Z,45.31
2019-03-12T11:11:04.767Z,43.46
2019-03-12T11:13:33.202Z,44.07
2019-03-12T11:16:01.645Z,44.67
2019-03-12T11:18:30.026Z,45.49
2019-03-12T11:20:58.997Z,44.83
2019-03-12T11:23:28.867Z,43.60
2019-03-12T11:25:57.247Z,43.21
2019-03-12T11:28:26.888Z,42.76
2019-03-12T11:30:56.277Z,42.11
2019-03-12T11:33:24.675Z,40.00
2019-03-12T11:35:53.208Z,39.83
2019-03-12T11:38:21.615Z,39.85
2019-03-12T11:41:09.380Z,39.49
2019-03-12T11:43:57.130Z,38.15
2019-03-12T11:46:25.862Z,41.18
2019-03-12T11:48:54.510Z,38.00
2019-03-12T11:51:23.145Z,36.72
2019-03-12T11:53:51.833Z,35.99
2019-03-12T11:56:20.623Z,37.35
2019-03-12T11:58:49.080Z,36.94
2019-03-12T12:01:17.870Z,39.04
2019-03-12T12:03:46.325Z,38.46
2019-03-12T12:06:15.053Z,38.43
2019-03-12T12:08:44.034Z,36.99
2019-03-12T12:11:14.147Z,37.56
2019-03-12T12:13:42.536Z,37.65
2019-03-12T12:16:11.315Z,38.74
2019-03-12T12:18:39.821Z,38.68
2019-03-12T12:21:08.481Z,37.89
2019-03-12T12:23:36.917Z,38.91
2019-03-12T12:26:05.648Z,36.19
2019-03-12T12:28:34.086Z,36.97
2019-03-12T12:31:02.816Z,36.54
2019-03-12T12:33:31.503Z,36.34
2019-03-12T12:36:00.120Z,36.19
2019-03-12T12:38:28.747Z,37.01
2019-03-12T12:40:57.126Z,36.76
2019-03-12T12:43:25.524Z,36.19
2019-03-12T12:45:54.214Z,35.67
2019-03-12T12:48:22.662Z,34.25
2019-03-12T12:51:02.413Z,34.04
2019-03-12T12:53:21.361Z,35.27
2019-03-12T12:55:50.086Z,34.47
2019-03-12T12:58:18.886Z,33.83
2019-03-12T13:00:47.338Z,35.06
2019-03-12T13:03:15.736Z,34.03
2019-03-12T13:05:44.114Z,31.38
2019-03-12T13:08:12.902Z,31.19
2019-03-12T13:10:41.586Z,31.78
2019-03-12T13:13:10.282Z,32.11
2019-03-12T13:15:38.714Z,31.67
2019-03-12T13:18:07.120Z,32.20
2019-03-12T13:20:35.506Z,33.31
2019-03-12T13:23:04.015Z,33.60
2019-03-12T13:25:32.717Z,33.92
2019-03-12T13:28:01.362Z,34.93
2019-03-12T13:31:09.902Z,35.62
2019-03-12T13:33:38.359Z,36.04
2019-03-12T13:39:01.525Z,36.37
2019-03-12T13:41:49.542Z,36.87
2019-03-12T13:44:18.035Z,36.62
2019-03-12T13:47:05.999Z,37.04
2019-03-12T13:49:34.699Z,37.92
2019-03-12T13:52:03.376Z,37.05
2019-03-12T13:54:31.993Z,37.89
2019-03-12T13:57:00.386Z,37.25
2019-03-12T13:59:28.872Z,37.20
2019-03-12T14:01:57.295Z,36.73
2019-03-12T14:04:26.049Z,36.75
2019-03-12T14:06:54.772Z,37.44
2019-03-12T14:09:23.172Z,36.04
2019-03-12T14:11:51.842Z,37.64
2019-03-12T14:14:20.232Z,37.65
2019-03-12T14:16:48.610Z,36.97
2019-03-12T14:19:17.279Z,36.71
2019-03-12T14:21:46.066Z,37.31
2019-03-12T14:24:14.447Z,36.94
2019-03-12T14:26:42.907Z,37.51
2019-03-12T14:29:11.611Z,36.94
2019-03-12T14:31:40.247Z,36.87
2019-03-12T14:34:08.626Z,37.05
2019-03-12T14:36:37.013Z,37.72
2019-03-12T14:39:45.556Z,37.73
2019-03-12T14:42:14.273Z,37.65
2019-03-12T14:44:43.055Z,38.30
2019-03-12T14:47:11.521Z,38.02
2019-03-12T14:49:39.901Z,38.34
2019-03-12T14:52:48.440Z,38.38
2019-03-12T14:55:16.874Z,38.62
2019-03-12T14:57:45.595Z,39.06
2019-03-12T15:03:36.020Z,39.45
2019-03-12T15:06:04.811Z,40.16
2019-03-12T15:08:33.194Z,40.47
2019-03-12T15:11:01.870Z,40.08
2019-03-12T15:13:30.549Z,40.47
2019-03-12T15:15:58.931Z,40.51
2019-03-12T15:18:27.334Z,39.83
2019-03-12T15:20:55.720Z,39.30
2019-03-12T15:23:24.378Z,40.26
2019-03-12T15:25:52.773Z,39.21
2019-03-12T15:28:21.444Z,39.46
2019-03-12T15:30:50.062Z,39.94
2019-03-12T15:33:18.707Z,38.67
2019-03-12T15:35:47.142Z,38.51
2019-03-12T15:38:15.531Z,39.06
2019-03-12T15:40:43.931Z,38.76
2019-03-12T15:43:12.629Z,37.74
2019-03-12T15:45:41.016Z,38.54
2019-03-12T15:48:09.422Z,38.41
2019-03-12T15:50:57.473Z,37.96
2019-03-12T15:53:25.950Z,38.29
2019-03-12T15:55:55.910Z,37.81
2019-03-12T15:58:24.488Z,37.08
2019-03-12T16:00:53.122Z,37.84
2019-03-12T16:03:21.779Z,37.54
2019-03-12T16:05:50.406Z,37.62
2019-03-12T16:08:18.808Z,37.44
2019-03-12T16:10:57.361Z,39.14
2019-03-12T16:13:17.530Z,38.64
2019-03-12T16:15:46.179Z,38.53
2019-03-12T16:18:14.854Z,38.72
2019-03-12T16:20:45.066Z,37.94
2019-03-12T16:23:53.626Z,38.11
2019-03-12T16:26:22.023Z,37.85
2019-03-12T16:28:50.739Z,37.47
2019-03-12T16:31:19.130Z,37.78
2019-03-12T16:33:47.790Z,38.56
2019-03-12T16:36:16.413Z,40.43
2019-03-12T16:38:44.813Z,40.27
2019-03-12T16:41:13.192Z,40.02
2019-03-12T16:43:41.580Z,39.58
2019-03-12T16:46:09.979Z,40.66
2019-03-12T16:48:38.770Z,40.30
2019-03-12T16:51:08.722Z,40.38
2019-03-12T16:53:37.125Z,39.98
2019-03-12T16:56:05.495Z,39.87
2019-03-12T16:58:34.147Z,40.37
2019-03-12T17:01:02.788Z,40.62
2019-03-12T17:03:31.536Z,40.80
2019-03-12T17:06:00.199Z,41.36
2019-03-12T17:08:47.994Z,41.29
2019-03-12T17:11:16.387Z,41.68
2019-03-12T17:13:44.761Z,42.01
2019-03-12T17:16:13.157Z,42.38
2019-03-12T17:18:41.540Z,42.00
2019-03-12T17:21:09.919Z,43.51
2019-03-12T17:23:38.610Z,42.95
2019-03-12T17:26:07.007Z,43.90
2019-03-12T17:28:35.381Z,44.43
2019-03-12T17:31:03.782Z,44.69
2019-03-12T17:33:32.159Z,44.45
2019-03-12T17:36:00.817Z,44.68
2019-03-12T17:38:41.657Z,44.47
2019-03-12T17:40:59.927Z,44.35
2019-03-12T17:43:28.613Z,44.06
2019-03-12T17:45:57.002Z,43.28
2019-03-12T17:48:25.383Z,43.57
2019-03-12T17:50:54.003Z,43.38
2019-03-12T17:53:22.450Z,43.58
2019-03-12T17:55:50.831Z,43.86
2019-03-12T17:58:19.206Z,43.77
2019-03-12T18:00:47.607Z,45.97
2019-03-12T18:03:15.981Z,44.57
2019-03-12T18:05:44.358Z,45.02
2019-03-12T18:08:12.750Z,44.62
2019-03-12T18:10:41.395Z,45.06
2019-03-12T18:13:09.782Z,44.65
2019-03-12T18:15:38.171Z,45.52
2019-03-12T18:18:06.833Z,45.34
2019-03-12T18:20:35.209Z,45.90
2019-03-12T18:23:03.912Z,45.90
2019-03-12T18:25:52.001Z,45.40
2019-03-12T18:28:20.395Z,45.23
2019-03-12T18:30:48.776Z,44.80
2019-03-12T18:33:17.404Z,45.35
2019-03-12T18:35:45.807Z,46.37
2019-03-12T18:38:14.251Z,45.67
2019-03-12T18:40:42.696Z,45.89
2019-03-12T18:43:14.511Z,45.70
2019-03-12T18:45:41.533Z,45.26
2019-03-12T18:48:09.911Z,45.95
2019-03-12T18:50:38.308Z,45.09
2019-03-12T18:53:06.761Z,45.15
2019-03-12T18:56:15.306Z,45.14
2019-03-12T18:58:43.685Z,46.24
2019-03-12T19:01:12.059Z,44.66
2019-03-12T19:03:40.459Z,43.98
2019-03-12T19:06:10.242Z,43.75
2019-03-12T19:08:39.178Z,45.31
2019-03-12T19:11:07.714Z,44.03
2019-03-12T19:13:36.157Z,43.84
2019-03-12T19:16:04.882Z,43.66
2019-03-12T19:18:33.754Z,44.09
2019-03-12T19:21:02.455Z,43.69
2019-03-12T19:23:31.139Z,43.98
2019-03-12T19:25:59.530Z,44.32
2019-03-12T19:28:27.974Z,43.55
2019-03-12T19:36:20.837Z,44.06
2019-03-12T19:38:49.213Z,44.59
2019-03-12T19:41:17.950Z,43.59
2019-03-12T19:43:46.355Z,43.68
2019-03-12T19:46:15.121Z,43.43
2019-03-12T19:48:43.500Z,43.36
2019-03-12T19:51:11.893Z,44.12
2019-03-12T19:53:40.561Z,43.58
2019-03-12T19:56:49.106Z,43.77
2019-03-12T19:59:57.640Z,43.53
2019-03-12T20:03:12.080Z,43.61
2019-03-12T20:05:36.754Z,43.12
2019-03-12T20:08:05.519Z,43.34
2019-03-12T20:11:12.503Z,44.06
2019-03-12T20:14:19.710Z,43.56
2019-03-12T20:17:26.937Z,43.08
2019-03-12T20:20:35.307Z,42.94
2019-03-12T20:23:42.286Z,43.04
2019-03-12T20:26:50.580Z,42.83
2019-03-12T20:29:57.569Z,43.58
2019-03-12T20:33:04.534Z,42.88
2019-03-12T20:36:11.756Z,43.47
2019-03-12T20:39:18.982Z,43.97
2019-03-12T20:42:25.972Z,43.11
2019-03-12T20:45:34.272Z,44.05
2019-03-12T20:48:41.258Z,44.02
2019-03-12T20:51:49.599Z,44.31
2019-03-12T20:54:56.817Z,43.58
2019-03-12T20:58:04.017Z,42.94
2019-03-12T21:01:11.367Z,43.28
2019-03-12T21:04:19.649Z,44.01
2019-03-12T21:07:26.633Z,43.78
2019-03-12T21:10:35.162Z,43.83
2019-03-12T21:13:43.476Z,42.59
2019-03-12T21:16:51.760Z,43.38
2019-03-12T21:19:58.976Z,43.17
2019-03-12T21:23:05.941Z,43.64
2019-03-12T21:26:12.946Z,43.50
2019-03-12T21:29:20.163Z,43.05
2019-03-12T21:31:48.808Z,42.75
2019-03-12T21:34:17.202Z,43.07
2019-03-12T21:36:45.575Z,42.38
2019-03-12T21:39:33.711Z,42.21
2019-03-12T21:42:02.497Z,42.56
2019-03-12T21:44:31.108Z,41.87
2019-03-12T21:47:01.122Z,41.57
2019-03-12T21:49:29.777Z,42.16
2019-03-12T21:51:58.469Z,42.49
2019-03-12T21:54:26.866Z,41.84
2019-03-12T21:56:55.305Z,42.73
2019-03-12T21:59:24.020Z,42.20
2019-03-12T22:01:52.496Z,41.59
2019-03-12T22:04:21.046Z,41.69
2019-03-12T22:06:49.407Z,42.21
2019-03-12T22:09:17.802Z,42.01
2019-03-12T22:11:46.267Z,41.99
2019-03-12T22:14:14.629Z,42.39
2019-03-12T22:19:18.451Z,42.56
2019-03-12T22:22:05.938Z,43.04
2019-03-12T22:24:34.326Z,43.23
2019-03-12T22:27:03.010Z,42.42
2019-03-12T22:29:31.385Z,41.78
2019-03-12T22:34:35.540Z,41.84
2019-03-12T22:37:04.157Z,41.82
2019-03-12T22:39:32.829Z,42.75
2019-03-12T22:42:01.397Z,41.00
2019-03-12T22:44:30.012Z,41.92
2019-03-12T22:46:58.699Z,41.07
2019-03-12T22:49:27.329Z,41.67
2019-03-12T22:51:55.705Z,41.61
2019-03-12T22:54:24.073Z,41.71
2019-03-12T22:56:52.469Z,42.32
2019-03-12T22:59:21.149Z,41.08
2019-03-12T23:01:49.881Z,42.21
2019-03-12T23:04:18.475Z,41.94
2019-03-12T23:06:47.107Z,42.42
2019-03-12T23:09:15.553Z,43.29
2019-03-12T23:11:43.949Z,41.64
2019-03-12T23:14:12.331Z,42.01
2019-03-12T23:16:40.714Z,42.01
2019-03-12T23:19:09.301Z,42.61
2019-03-12T23:21:38.173Z,43.28
2019-03-12T23:24:06.886Z,44.38
2019-03-12T23:26:35.570Z,44.71
2019-03-12T23:29:03.949Z,46.08
2019-03-12T23:31:32.570Z,47.59
2019-03-12T23:34:01.217Z,49.64
2019-03-12T23:36:48.948Z,51.64
2019-03-12T23:39:17.405Z,53.90
2019-03-12T23:41:45.921Z,56.57
2019-03-12T23:44:14.754Z,56.93
2019-03-12T23:46:43.387Z,58.12
2019-03-12T23:49:11.823Z,59.72
2019-03-12T23:51:40.553Z,60.45
2019-03-12T23:57:04.048Z,61.33
2019-03-12T23:59:32.424Z,64.77
